East Rockaway, New York
Current Conditions -  °F | °C
As of 4:51 PM on Sunday 21 Dec 2014 (Local Time) from KJFK Reporting Station
Overcast Overcast  
Wind Chill: 31°   Ceiling: 2800
Heat Index: 37°   Visibility: 10mi
Dew Point: 28°   Wind: 8mph
Humidity: 70%   Direction: 350°N
Pressure: 30.3"   Gusts: NA
Location:  40.65°N, 73.66°W
Report Text: KJFK 212151Z 35007KT 10SM SCT018 OVC028 03/M02 A3030 RMK AO2 SLP261 T00281022 $
Loading
Personal Weather Stations






























Interactive Weather Map New forecast layout! Learn more

10-Day Weather Forecast

Advertisements
Track Severe Weather on mobile